Terminal Aerodrome Forecast
Issued by NWS

Home | Current Version | Previous Version | Graphics & Text | Print | Product List | Glossary On
Versions: 1 2 3 4 5 6 7 8 9 10 11 12 13 14 15 16
000
FTUS42 KMHX 240637 AAA
TAFPGV
TAF AMD
KPGV 240637Z 2407/2506 VRB02KT P6SM SCT080
     FM241300 26006KT P6SM SCT150
     FM250100 22002KT P6SM SKC
      AMD LTD TO CLD VIS AND WIND=

USA.gov is the U.S. government's official web portal to all federal, state and local government web resources and services.